Time;durP1;ratioP1;P1;durP2;ratioP2;P2;SDS_P1;SDS_P2;PMS_P1;PMS_P2;Temp;Humidity;BMP_temperature;BMP_pressure;BME280_temperature;BME280_humidity;BME280_pressure;Samples;Min_cycle;Max_cycle;Signal;HPM_P1;HPM_P2
2022/10/20 00:01:59;;;;;;;10.05;4.45;;;8.60;73.00;;;;;;5132785;27;20031;-72
2022/10/20 00:04:25;;;;;;;7.72;4.75;;;8.50;73.10;;;;;;5115780;27;20038;-72
2022/10/20 00:06:50;;;;;;;12.02;5.30;;;8.50;73.20;;;;;;5098543;27;20051;-72
2022/10/20 00:09:16;;;;;;;11.32;5.28;;;8.50;73.40;;;;;;5115101;27;20383;-72
2022/10/20 00:11:42;;;;;;;6.63;4.80;;;8.50;73.30;;;;;;5115358;27;20470;-72
2022/10/20 00:14:09;;;;;;;10.63;5.15;;;8.40;73.50;;;;;;5115070;28;20448;-72
2022/10/20 00:16:37;;;;;;;6.78;4.38;;;8.40;73.50;;;;;;5132326;27;20039;-72
2022/10/20 00:19:03;;;;;;;9.82;5.15;;;8.40;73.50;;;;;;5114708;27;20124;-72
2022/10/20 00:21:30;;;;;;;10.85;4.85;;;8.40;73.60;;;;;;5115585;28;20039;-72
2022/10/20 00:24:00;;;;;;;7.72;5.22;;;8.40;73.60;;;;;;5132170;27;20440;-72
2022/10/20 00:26:27;;;;;;;8.30;4.85;;;8.30;73.70;;;;;;5132403;28;20070;-72
2022/10/20 00:28:53;;;;;;;8.65;5.00;;;8.30;73.80;;;;;;5132478;28;20039;-72
2022/10/20 00:31:21;;;;;;;6.18;5.00;;;8.30;73.90;;;;;;5124022;28;20474;-73
2022/10/20 00:33:47;;;;;;;7.32;4.60;;;8.20;73.90;;;;;;5132325;28;20041;-72
2022/10/20 00:36:15;;;;;;;9.88;5.18;;;8.30;74.00;;;;;;5131934;28;20035;-72
2022/10/20 00:38:41;;;;;;;11.35;5.50;;;8.20;74.00;;;;;;5114628;27;20084;-72
2022/10/20 00:41:07;;;;;;;9.70;5.00;;;8.20;74.40;;;;;;5115122;28;20043;-72
2022/10/20 00:43:40;;;;;;;9.60;5.45;;;8.20;74.10;;;;;;5132488;28;20042;-72
2022/10/20 00:46:06;;;;;;;8.90;5.53;;;8.20;74.30;;;;;;5131498;27;20031;-72
2022/10/20 00:48:33;;;;;;;9.15;5.22;;;8.20;74.30;;;;;;5132587;28;20050;-72
2022/10/20 00:50:58;;;;;;;7.30;4.63;;;8.10;74.40;;;;;;5131654;28;20495;-72
2022/10/20 00:53:27;;;;;;;8.70;4.40;;;8.10;74.40;;;;;;5131886;28;20050;-72
2022/10/20 00:55:56;;;;;;;7.93;4.78;;;8.10;74.50;;;;;;5131628;28;20485;-72
2022/10/20 00:58:22;;;;;;;7.18;5.22;;;8.00;74.50;;;;;;5114906;28;20047;-72
2022/10/20 01:00:52;;;;;;;7.45;5.00;;;8.00;74.60;;;;;;5131878;27;20043;-72
2022/10/20 01:03:29;;;;;;;9.13;5.53;;;8.00;74.60;;;;;;5131629;27;20045;-72
2022/10/20 01:05:54;;;;;;;9.38;4.93;;;8.00;74.80;;;;;;5131455;28;20038;-72
2022/10/20 01:08:20;;;;;;;10.43;5.25;;;7.90;74.80;;;;;;5132247;27;20047;-72
2022/10/20 01:11:03;;;;;;;11.18;5.57;;;7.90;74.80;;;;;;5131687;27;20062;-72
2022/10/20 01:13:46;;;;;;;8.13;5.15;;;7.90;75.00;;;;;;5135733;27;20043;-72
2022/10/20 01:16:26;;;;;;;8.20;4.88;;;7.90;74.90;;;;;;5135161;27;20045;-72
2022/10/20 01:19:02;;;;;;;10.25;4.80;;;7.90;75.10;;;;;;5135862;27;20039;-72
2022/10/20 01:21:52;;;;;;;10.63;5.40;;;7.90;75.10;;;;;;5134647;27;20172;-72
2022/10/20 01:24:37;;;;;;;7.45;4.63;;;7.90;75.10;;;;;;5135184;27;20074;-72
2022/10/20 01:27:41;;;;;;;8.27;4.85;;;7.90;75.10;;;;;;5135277;27;20031;-72
2022/10/20 01:30:14;;;;;;;10.48;5.22;;;7.90;75.10;;;;;;5135505;27;20390;-72
2022/10/20 01:33:02;;;;;;;13.60;5.53;;;7.80;75.00;;;;;;5116720;27;20507;-72
2022/10/20 01:35:43;;;;;;;10.00;5.13;;;7.80;75.50;;;;;;5135069;27;20039;-73
2022/10/20 01:38:18;;;;;;;9.05;5.32;;;7.80;75.10;;;;;;5135420;27;20043;-73
2022/10/20 01:41:02;;;;;;;11.18;5.53;;;7.80;75.30;;;;;;5118038;27;20156;-72
2022/10/20 01:43:31;;;;;;;8.98;5.20;;;7.80;75.20;;;;;;5117802;27;20151;-72
2022/10/20 01:45:58;;;;;;;10.95;5.20;;;7.80;75.20;;;;;;5134643;27;20041;-72
2022/10/20 01:48:28;;;;;;;11.63;5.20;;;7.80;75.30;;;;;;5135418;27;20045;-72
2022/10/20 01:50:54;;;;;;;10.02;5.10;;;7.80;75.30;;;;;;5134776;27;20043;-72
2022/10/20 01:53:20;;;;;;;9.45;4.80;;;7.80;75.40;;;;;;5134757;27;20049;-73
2022/10/20 01:55:51;;;;;;;8.95;5.32;;;7.80;75.40;;;;;;5134448;27;20047;-72
2022/10/20 01:58:47;;;;;;;9.18;5.75;;;7.80;75.50;;;;;;5134300;27;20061;-72
2022/10/20 02:01:18;;;;;;;9.05;5.07;;;7.70;75.50;;;;;;5134689;27;20047;-72
2022/10/20 02:03:53;;;;;;;6.65;4.80;;;7.70;75.50;;;;;;5134657;27;20109;-72
2022/10/20 02:06:36;;;;;;;8.40;4.78;;;7.70;75.60;;;;;;5134673;27;20143;-72
2022/10/20 02:09:11;;;;;;;8.32;5.70;;;7.70;75.60;;;;;;5134258;27;20066;-72
2022/10/20 02:11:47;;;;;;;8.70;4.97;;;7.70;75.60;;;;;;5134547;27;20564;-72
2022/10/20 02:14:16;;;;;;;7.15;5.20;;;7.70;75.60;;;;;;5117384;27;20071;-72
2022/10/20 02:16:55;;;;;;;8.80;4.88;;;7.70;75.60;;;;;;5134404;27;20426;-72
2022/10/20 02:19:24;;;;;;;9.27;5.38;;;7.70;76.00;;;;;;5133805;27;20050;-72
2022/10/20 02:21:51;;;;;;;9.65;5.55;;;7.70;75.60;;;;;;5131275;27;20036;-72
2022/10/20 02:24:20;;;;;;;9.57;4.43;;;7.70;75.60;;;;;;5128509;27;20035;-72
2022/10/20 02:26:46;;;;;;;8.65;5.40;;;7.70;75.70;;;;;;5133466;27;20027;-72
2022/10/20 02:29:21;;;;;;;8.38;5.13;;;7.70;75.70;;;;;;5134653;27;20087;-72
2022/10/20 02:31:47;;;;;;;10.48;5.22;;;7.70;75.80;;;;;;5134127;27;20118;-71
2022/10/20 02:34:14;;;;;;;8.18;5.25;;;7.70;75.70;;;;;;5150737;27;20176;-71
2022/10/20 02:36:41;;;;;;;7.75;4.95;;;7.60;75.70;;;;;;5150001;27;20478;-71
2022/10/20 02:39:08;;;;;;;7.82;4.70;;;7.60;75.70;;;;;;5133875;27;20050;-71
2022/10/20 02:41:34;;;;;;;8.65;5.05;;;7.60;75.70;;;;;;5117013;27;20039;-73
2022/10/20 02:44:00;;;;;;;9.30;5.35;;;7.70;75.80;;;;;;5117003;27;20378;-73
2022/10/20 02:46:25;;;;;;;10.35;5.68;;;7.70;75.80;;;;;;5134122;27;20043;-73
2022/10/20 02:48:51;;;;;;;9.63;5.40;;;7.60;75.70;;;;;;5116445;27;20039;-73
2022/10/20 02:51:17;;;;;;;8.60;5.25;;;7.60;75.70;;;;;;5116537;27;20035;-73
2022/10/20 02:53:44;;;;;;;7.60;5.53;;;7.60;75.80;;;;;;5133791;27;20037;-73
2022/10/20 02:56:10;;;;;;;8.20;5.10;;;7.60;75.70;;;;;;5133596;27;20047;-73
2022/10/20 02:58:35;;;;;;;8.88;5.50;;;7.60;75.80;;;;;;5116422;27;20051;-72
2022/10/20 03:01:02;;;;;;;9.18;5.45;;;7.60;75.90;;;;;;5133907;27;20077;-72
2022/10/20 03:03:28;;;;;;;9.35;5.57;;;7.60;75.80;;;;;;5133806;27;20463;-72
2022/10/20 03:05:53;;;;;;;7.80;5.00;;;7.60;75.90;;;;;;5116499;27;20074;-73
2022/10/20 03:08:20;;;;;;;9.10;5.57;;;7.60;76.00;;;;;;5133923;27;20090;-73
2022/10/20 03:10:45;;;;;;;8.98;6.05;;;7.50;76.00;;;;;;5133324;27;20440;-73
2022/10/20 03:13:13;;;;;;;9.07;5.30;;;7.50;75.90;;;;;;5116193;27;20035;-73
2022/10/20 03:15:39;;;;;;;7.07;5.18;;;7.60;76.00;;;;;;5133244;27;20054;-73
2022/10/20 03:18:05;;;;;;;11.32;5.88;;;7.50;75.90;;;;;;5133412;27;20039;-73
2022/10/20 03:20:31;;;;;;;10.25;6.10;;;7.50;76.00;;;;;;5132983;27;20096;-73
2022/10/20 03:22:57;;;;;;;10.35;6.00;;;7.60;76.10;;;;;;5132830;27;20066;-73
2022/10/20 03:25:22;;;;;;;9.98;5.07;;;7.50;76.00;;;;;;5132713;27;20069;-73
2022/10/20 03:27:48;;;;;;;9.38;5.57;;;7.50;76.00;;;;;;5116192;27;20042;-73
2022/10/20 03:30:14;;;;;;;10.63;5.45;;;7.50;76.10;;;;;;5115572;27;20062;-73
2022/10/20 03:32:39;;;;;;;9.55;5.35;;;7.50;76.10;;;;;;5132901;27;20062;-73
2022/10/20 03:35:05;;;;;;;9.85;5.85;;;7.50;76.10;;;;;;5132456;27;20031;-73
2022/10/20 03:37:31;;;;;;;8.98;5.57;;;7.50;76.10;;;;;;5133568;27;20405;-73
2022/10/20 03:39:57;;;;;;;8.95;5.85;;;7.50;76.20;;;;;;5115983;27;20043;-73
2022/10/20 03:42:22;;;;;;;9.60;5.78;;;7.50;76.10;;;;;;5116028;27;20547;-73
2022/10/20 03:44:48;;;;;;;10.77;5.93;;;7.50;76.20;;;;;;5115963;27;20031;-73
2022/10/20 03:47:14;;;;;;;13.30;6.70;;;7.50;76.20;;;;;;5132487;27;20501;-73
2022/10/20 03:49:39;;;;;;;9.02;6.28;;;7.50;76.20;;;;;;5116190;27;20070;-73
2022/10/20 03:52:05;;;;;;;8.35;6.03;;;7.50;76.20;;;;;;5132747;27;20035;-73
2022/10/20 03:54:31;;;;;;;9.43;5.95;;;7.40;76.30;;;;;;5115426;27;20441;-73
2022/10/20 03:56:56;;;;;;;11.45;6.55;;;7.50;76.30;;;;;;5132658;27;20039;-73
2022/10/20 03:59:22;;;;;;;9.07;6.40;;;7.50;76.30;;;;;;5149649;27;20051;-73
2022/10/20 04:01:48;;;;;;;9.60;6.38;;;7.50;76.30;;;;;;5104028;28;20067;-73
2022/10/20 04:04:14;;;;;;;9.70;7.00;;;7.50;76.30;;;;;;5130478;27;20525;-73
2022/10/20 04:06:39;;;;;;;8.63;6.53;;;7.40;76.30;;;;;;5132292;27;20047;-73
2022/10/20 04:09:05;;;;;;;12.43;6.85;;;7.50;76.30;;;;;;5132632;27;20126;-73
2022/10/20 04:11:31;;;;;;;10.20;7.00;;;7.40;76.30;;;;;;5132237;27;20046;-73
2022/10/20 04:13:57;;;;;;;10.13;6.90;;;7.50;76.30;;;;;;5114928;27;20043;-73
2022/10/20 04:16:23;;;;;;;11.50;6.95;;;7.50;76.40;;;;;;5131980;27;20417;-73
2022/10/20 04:18:52;;;;;;;10.65;6.88;;;7.50;76.40;;;;;;5132000;27;20557;-73
2022/10/20 04:21:18;;;;;;;8.88;6.95;;;7.50;76.40;;;;;;5131975;27;20118;-73
2022/10/20 04:23:43;;;;;;;10.00;7.00;;;7.50;76.40;;;;;;5115149;27;20078;-73
2022/10/20 04:26:11;;;;;;;8.43;6.55;;;7.50;76.40;;;;;;5115367;28;20504;-73
2022/10/20 04:28:37;;;;;;;11.05;7.05;;;7.50;76.40;;;;;;5132630;28;20046;-73
2022/10/20 04:31:03;;;;;;;9.48;7.43;;;7.50;76.30;;;;;;5132066;27;20039;-73
2022/10/20 04:33:28;;;;;;;14.98;8.60;;;7.50;76.30;;;;;;5133008;28;20070;-73
2022/10/20 04:35:59;;;;;;;10.50;8.60;;;7.50;76.30;;;;;;5132242;28;20482;-73
2022/10/20 04:38:25;;;;;;;12.40;7.47;;;7.50;76.30;;;;;;5112026;28;20395;-72
2022/10/20 04:40:55;;;;;;;11.30;8.02;;;7.50;76.20;;;;;;5118289;27;20039;-73
2022/10/20 04:43:20;;;;;;;10.00;7.32;;;7.50;76.70;;;;;;5114808;28;20114;-73
2022/10/20 04:45:46;;;;;;;10.50;8.10;;;7.50;76.30;;;;;;5131965;27;20123;-73
2022/10/20 04:48:12;;;;;;;11.82;8.50;;;7.50;76.20;;;;;;5118922;27;20043;-73
2022/10/20 04:50:37;;;;;;;10.15;7.50;;;7.50;76.20;;;;;;5135786;27;20053;-73
2022/10/20 04:53:03;;;;;;;12.07;8.90;;;7.50;76.20;;;;;;5118774;27;20408;-73
2022/10/20 04:55:29;;;;;;;13.07;8.73;;;7.40;76.10;;;;;;5136073;27;21761;-73
2022/10/20 04:57:54;;;;;;;9.68;8.02;;;7.50;76.20;;;;;;5135612;27;20100;-73
2022/10/20 05:00:20;;;;;;;11.50;9.05;;;7.40;76.10;;;;;;5135568;27;20073;-73
2022/10/20 05:02:46;;;;;;;11.13;8.40;;;7.50;76.30;;;;;;5135274;27;20045;-73
2022/10/20 05:05:11;;;;;;;10.65;8.93;;;7.40;76.20;;;;;;5136174;27;20402;-73
2022/10/20 05:07:37;;;;;;;13.48;10.18;;;7.40;76.20;;;;;;5118965;27;20524;-72
2022/10/20 05:10:03;;;;;;;13.02;9.45;;;7.40;76.30;;;;;;5136017;27;20431;-72
2022/10/20 05:12:28;;;;;;;12.75;9.50;;;7.40;76.30;;;;;;5135647;27;20050;-72
2022/10/20 05:14:54;;;;;;;15.20;11.05;;;7.40;76.40;;;;;;5135917;27;20035;-73
2022/10/20 05:17:20;;;;;;;13.10;9.75;;;7.40;76.40;;;;;;5118250;27;20035;-73
2022/10/20 05:19:45;;;;;;;13.55;10.00;;;7.40;76.40;;;;;;5118351;27;20168;-73
2022/10/20 05:22:11;;;;;;;16.75;10.27;;;7.40;76.40;;;;;;5142100;27;20130;-73
2022/10/20 05:24:37;;;;;;;10.45;9.30;;;7.40;76.40;;;;;;5136165;27;20090;-73
2022/10/20 05:27:02;;;;;;;13.60;10.02;;;7.40;76.40;;;;;;5137566;27;20055;-73
2022/10/20 05:29:28;;;;;;;14.93;9.93;;;7.40;76.40;;;;;;5135645;27;20043;-73
2022/10/20 05:31:54;;;;;;;12.88;9.75;;;7.40;76.30;;;;;;5134904;27;20104;-74
2022/10/20 05:34:19;;;;;;;13.40;10.45;;;7.40;76.40;;;;;;5135559;27;20043;-73
2022/10/20 05:36:45;;;;;;;14.35;9.50;;;7.30;76.40;;;;;;5118602;27;20558;-72
2022/10/20 05:39:11;;;;;;;18.27;10.73;;;7.40;76.40;;;;;;5134647;27;20039;-73
2022/10/20 05:41:38;;;;;;;14.38;11.00;;;7.40;76.40;;;;;;5135087;27;20403;-73
2022/10/20 05:44:04;;;;;;;14.13;10.68;;;7.40;76.40;;;;;;5134707;27;20035;-73
2022/10/20 05:46:33;;;;;;;14.43;11.23;;;7.40;76.40;;;;;;5141566;27;20030;-74
2022/10/20 05:49:00;;;;;;;14.40;10.90;;;7.40;76.40;;;;;;5131513;27;20038;-73
2022/10/20 05:51:29;;;;;;;15.45;11.20;;;7.40;76.40;;;;;;5152165;27;20080;-73
2022/10/20 05:53:56;;;;;;;15.43;11.40;;;7.40;76.40;;;;;;5150447;27;20047;-73
2022/10/20 05:56:23;;;;;;;16.08;12.00;;;7.40;76.40;;;;;;5148528;27;20453;-73
2022/10/20 05:58:49;;;;;;;14.25;11.40;;;7.40;76.30;;;;;;5149210;27;20055;-72
2022/10/20 06:01:22;;;;;;;13.25;10.82;;;7.40;76.30;;;;;;5152139;27;20052;-72
2022/10/20 06:03:49;;;;;;;17.13;11.82;;;7.40;76.30;;;;;;5132423;27;20035;-73
2022/10/20 06:06:16;;;;;;;13.32;11.57;;;7.40;76.30;;;;;;5148127;27;20034;-73
2022/10/20 06:08:41;;;;;;;13.65;11.60;;;7.40;76.70;;;;;;5150117;27;20046;-73
2022/10/20 06:11:10;;;;;;;15.98;11.57;;;7.50;76.40;;;;;;5152058;27;20597;-73
2022/10/20 06:13:36;;;;;;;14.10;12.20;;;7.40;76.30;;;;;;5149950;27;20034;-73
2022/10/20 06:16:10;;;;;;;14.30;11.65;;;7.40;76.30;;;;;;5151123;27;20099;-73
2022/10/20 06:18:39;;;;;;;;;;;7.40;76.30;;;;;;5150061;27;20444;-73
2022/10/20 06:21:07;;;;;;;15.95;11.25;;;7.50;76.20;;;;;;5146732;27;20289;-73
2022/10/20 06:23:33;;;;;;;14.70;11.70;;;7.40;76.30;;;;;;5150047;27;20367;-73
2022/10/20 06:26:10;;;;;;;13.55;12.15;;;7.50;76.20;;;;;;5148491;27;20050;-73
2022/10/20 06:28:38;;;;;;;14.95;11.45;;;7.50;76.30;;;;;;5150275;27;20133;-73
2022/10/20 06:31:10;;;;;;;16.40;12.13;;;7.50;76.30;;;;;;5151461;27;20042;-73
2022/10/20 06:33:35;;;;;;;13.15;11.75;;;7.50;76.30;;;;;;5132783;27;20043;-73
2022/10/20 06:36:01;;;;;;;16.45;11.98;;;7.50;76.20;;;;;;5148041;27;20045;-73
2022/10/20 06:38:27;;;;;;;15.70;13.23;;;7.50;76.30;;;;;;5148301;27;20039;-73
2022/10/20 06:40:53;;;;;;;16.70;12.80;;;7.50;76.20;;;;;;5150520;27;20087;-73
2022/10/20 06:43:19;;;;;;;14.52;11.68;;;7.60;76.20;;;;;;5132082;27;20034;-73
2022/10/20 06:45:54;;;;;;;16.58;12.10;;;7.60;76.20;;;;;;5150524;27;20462;-73
2022/10/20 06:48:20;;;;;;;16.50;12.20;;;7.60;76.20;;;;;;5149432;27;20490;-72
2022/10/20 06:50:45;;;;;;;14.30;12.15;;;7.60;76.20;;;;;;5133999;27;20043;-72
2022/10/20 06:53:11;;;;;;;18.15;12.50;;;7.60;76.10;;;;;;5134015;27;20043;-72
2022/10/20 06:55:37;;;;;;;15.52;12.00;;;7.60;76.40;;;;;;5133425;27;20039;-72
2022/10/20 06:58:02;;;;;;;15.15;11.57;;;7.70;76.00;;;;;;5151383;27;20062;-72
2022/10/20 07:00:28;;;;;;;13.65;11.73;;;7.70;75.90;;;;;;5150735;27;20051;-72
2022/10/20 07:02:53;;;;;;;14.27;11.10;;;7.70;75.90;;;;;;5132910;27;20035;-72
2022/10/20 07:05:20;;;;;;;15.07;11.50;;;7.70;75.90;;;;;;5149277;27;20039;-72
2022/10/20 07:07:46;;;;;;;17.23;12.52;;;7.70;75.90;;;;;;5133792;27;20413;-72
2022/10/20 07:10:12;;;;;;;15.85;11.65;;;7.80;76.00;;;;;;5133036;27;20042;-72
2022/10/20 07:12:38;;;;;;;14.48;10.88;;;7.70;75.90;;;;;;5117035;27;20042;-72
2022/10/20 07:15:05;;;;;;;14.52;11.15;;;7.80;75.90;;;;;;5116454;27;20079;-72
2022/10/20 07:17:31;;;;;;;16.95;11.80;;;7.80;75.80;;;;;;5133752;27;20042;-72
2022/10/20 07:19:56;;;;;;;16.85;12.05;;;7.80;75.80;;;;;;5133295;27;20043;-72
2022/10/20 07:22:22;;;;;;;15.38;12.07;;;7.80;75.70;;;;;;5133868;27;20360;-72
2022/10/20 07:24:48;;;;;;;15.63;12.15;;;7.80;75.60;;;;;;5133418;27;20490;-72
2022/10/20 07:27:13;;;;;;;15.85;11.65;;;7.80;75.60;;;;;;5133483;27;20467;-72
2022/10/20 07:29:39;;;;;;;15.90;12.13;;;7.80;76.00;;;;;;5150058;27;20478;-71
2022/10/20 07:32:04;;;;;;;14.00;12.02;;;7.90;75.70;;;;;;5116238;27;20087;-72
2022/10/20 07:34:30;;;;;;;13.27;11.80;;;7.90;75.70;;;;;;5133051;27;20050;-72
2022/10/20 07:36:56;;;;;;;16.63;12.10;;;7.90;75.60;;;;;;5115501;27;20068;-72
2022/10/20 07:39:23;;;;;;;14.80;11.60;;;7.90;75.70;;;;;;5118588;27;20042;-72
2022/10/20 07:41:49;;;;;;;17.58;12.40;;;7.90;75.60;;;;;;5131647;27;20118;-71
2022/10/20 07:44:15;;;;;;;13.98;11.77;;;8.00;75.60;;;;;;5114424;27;20126;-72
2022/10/20 07:46:41;;;;;;;15.40;11.85;;;8.00;75.50;;;;;;5132106;27;20486;-72
2022/10/20 07:49:06;;;;;;;14.50;11.50;;;8.10;75.50;;;;;;5132650;27;20045;-72
2022/10/20 07:51:33;;;;;;;13.95;11.23;;;8.10;75.40;;;;;;5132558;27;20043;-72
2022/10/20 07:54:01;;;;;;;13.32;11.38;;;8.10;75.40;;;;;;5132322;27;20086;-72
2022/10/20 07:56:32;;;;;;;15.48;12.07;;;8.10;75.30;;;;;;5132449;27;20439;-72
2022/10/20 07:58:58;;;;;;;15.75;11.85;;;8.20;75.30;;;;;;5115621;27;20047;-72
2022/10/20 08:01:25;;;;;;;14.05;12.05;;;8.20;75.30;;;;;;5132330;27;20130;-72
2022/10/20 08:03:50;;;;;;;13.50;11.70;;;8.30;75.20;;;;;;5115426;27;20379;-72
2022/10/20 08:06:16;;;;;;;13.60;11.27;;;8.40;75.20;;;;;;5136643;27;20046;-71
2022/10/20 08:08:42;;;;;;;16.13;11.15;;;8.40;75.50;;;;;;5115958;27;20130;-72
2022/10/20 08:11:08;;;;;;;13.40;11.13;;;8.40;75.10;;;;;;5133350;27;20044;-72
2022/10/20 08:13:34;;;;;;;13.05;11.40;;;8.40;75.10;;;;;;5112233;28;20051;-72
2022/10/20 08:15:59;;;;;;;13.38;10.90;;;8.50;74.90;;;;;;5109234;27;20047;-72
2022/10/20 08:18:25;;;;;;;16.65;11.13;;;8.50;74.80;;;;;;5115754;28;20039;-72
2022/10/20 08:20:51;;;;;;;13.27;11.60;;;8.50;74.80;;;;;;5132530;27;20426;-72
2022/10/20 08:23:17;;;;;;;13.18;11.20;;;8.60;74.80;;;;;;5132443;27;20478;-72
2022/10/20 08:25:42;;;;;;;12.98;10.50;;;8.60;74.70;;;;;;5132335;27;20492;-72
2022/10/20 08:28:08;;;;;;;16.23;11.10;;;8.80;74.70;;;;;;5148678;27;20173;-72
2022/10/20 08:30:35;;;;;;;13.80;10.75;;;8.80;74.50;;;;;;5140581;27;20096;-72
2022/10/20 08:33:01;;;;;;;12.10;10.70;;;8.80;74.10;;;;;;5112267;28;20184;-72
2022/10/20 08:35:27;;;;;;;15.93;10.60;;;8.90;74.10;;;;;;5119102;28;20468;-72
2022/10/20 08:37:53;;;;;;;13.73;10.85;;;9.00;74.10;;;;;;5149096;27;20386;-70
2022/10/20 08:40:25;;;;;;;12.13;10.77;;;9.00;74.00;;;;;;5132321;28;20076;-71
2022/10/20 08:42:51;;;;;;;12.32;9.18;;;9.00;73.70;;;;;;5132689;27;20039;-72
2022/10/20 08:45:20;;;;;;;16.10;10.60;;;9.10;73.80;;;;;;5132271;28;20080;-72
2022/10/20 08:47:48;;;;;;;11.65;10.35;;;9.20;73.70;;;;;;5132427;28;20039;-72
2022/10/20 08:50:16;;;;;;;13.23;10.35;;;9.30;73.70;;;;;;5132148;27;20069;-72
2022/10/20 08:52:44;;;;;;;13.30;10.18;;;9.40;73.50;;;;;;5132077;27;20039;-72
2022/10/20 08:55:31;;;;;;;11.98;9.90;;;9.40;73.00;;;;;;5131897;28;20483;-72
2022/10/20 08:58:02;;;;;;;11.73;9.30;;;9.60;72.70;;;;;;5115059;28;20624;-72
2022/10/20 09:00:30;;;;;;;14.55;9.63;;;9.60;72.70;;;;;;5131775;27;20047;-72
2022/10/20 09:03:00;;;;;;;11.73;9.80;;;9.70;72.60;;;;;;5132271;28;20047;-72
2022/10/20 09:05:30;;;;;;;10.75;9.45;;;9.70;72.40;;;;;;5132336;28;20374;-72
2022/10/20 09:07:56;;;;;;;15.32;10.10;;;9.80;72.30;;;;;;5132516;27;20414;-73
2022/10/20 09:10:35;;;;;;;14.07;9.70;;;9.90;72.10;;;;;;5131817;27;20031;-72
2022/10/20 09:13:15;;;;;;;11.57;9.38;;;10.00;71.90;;;;;;5132438;27;20443;-72
2022/10/20 09:15:41;;;;;;;11.77;9.95;;;10.00;71.90;;;;;;5131869;28;20039;-72
2022/10/20 09:18:12;;;;;;;11.80;9.88;;;10.10;71.80;;;;;;5132326;27;20079;-72
2022/10/20 09:20:52;;;;;;;10.90;9.73;;;10.10;71.50;;;;;;5114203;28;20118;-72
2022/10/20 09:23:22;;;;;;;12.40;9.88;;;10.20;71.40;;;;;;5129197;27;20070;-71
2022/10/20 09:25:52;;;;;;;12.98;9.65;;;10.20;71.50;;;;;;5131143;27;20479;-72
2022/10/20 09:28:26;;;;;;;11.60;10.13;;;10.30;71.50;;;;;;5129633;27;20043;-73
2022/10/20 09:30:53;;;;;;;14.52;8.55;;;10.40;71.50;;;;;;5131314;27;20031;-73
2022/10/20 09:33:31;;;;;;;13.48;9.73;;;10.50;71.50;;;;;;5116837;27;20073;-73
2022/10/20 09:36:05;;;;;;;15.05;9.80;;;10.60;71.20;;;;;;5123974;27;20114;-72
2022/10/20 09:38:33;;;;;;;10.05;9.05;;;10.70;71.00;;;;;;5135655;27;20088;-73
2022/10/20 09:41:09;;;;;;;11.02;8.70;;;10.70;70.60;;;;;;5135460;27;20035;-73
2022/10/20 09:43:38;;;;;;;10.48;8.77;;;10.80;70.50;;;;;;5135529;27;20490;-70
2022/10/20 09:46:07;;;;;;;12.85;9.50;;;10.90;70.20;;;;;;5135181;27;20118;-70
2022/10/20 09:48:38;;;;;;;11.07;8.90;;;10.90;69.80;;;;;;5135458;27;20043;-70
2022/10/20 09:51:11;;;;;;;10.30;8.40;;;11.00;69.70;;;;;;5135357;27;20134;-71
2022/10/20 09:54:02;;;;;;;10.48;8.85;;;11.10;70.00;;;;;;5135452;27;20490;-71
2022/10/20 09:56:34;;;;;;;11.75;9.20;;;11.20;69.60;;;;;;5146773;27;20073;-71
2022/10/20 09:59:03;;;;;;;11.60;8.70;;;11.30;69.70;;;;;;5118017;27;20126;-71
2022/10/20 10:01:29;;;;;;;10.23;9.13;;;11.30;69.60;;;;;;5118278;27;20070;-71
2022/10/20 10:04:00;;;;;;;10.55;8.45;;;11.30;69.40;;;;;;5135221;27;20390;-71
2022/10/20 10:06:42;;;;;;;10.15;8.20;;;11.40;69.40;;;;;;5134729;27;20091;-72
2022/10/20 10:09:26;;;;;;;10.75;8.50;;;11.50;69.10;;;;;;5135054;27;20039;-72
2022/10/20 10:12:03;;;;;;;8.95;7.88;;;11.60;69.20;;;;;;5117762;27;20478;-71
2022/10/20 10:14:32;;;;;;;10.00;8.85;;;11.70;69.20;;;;;;5135353;27;20043;-72
2022/10/20 10:16:58;;;;;;;13.95;9.05;;;11.80;69.10;;;;;;5134537;27;20126;-72
2022/10/20 10:19:27;;;;;;;8.82;7.63;;;11.90;69.50;;;;;;5134898;27;20035;-72
2022/10/20 10:21:55;;;;;;;11.18;8.38;;;12.00;69.00;;;;;;5134565;27;20043;-72
2022/10/20 10:24:28;;;;;;;8.52;7.72;;;12.10;68.80;;;;;;5134404;27;20073;-72
2022/10/20 10:26:55;;;;;;;12.50;9.02;;;12.20;68.50;;;;;;5133619;27;20027;-72
2022/10/20 10:29:33;;;;;;;10.57;8.10;;;12.30;68.40;;;;;;5117266;27;20482;-72
2022/10/20 10:32:02;;;;;;;9.80;7.72;;;12.30;67.90;;;;;;5123237;27;20118;-72
2022/10/20 10:34:38;;;;;;;11.02;8.27;;;12.40;67.70;;;;;;5134123;27;20071;-72
2022/10/20 10:37:03;;;;;;;10.43;7.65;;;12.50;67.70;;;;;;5131506;27;20035;-72
2022/10/20 10:39:32;;;;;;;11.77;8.02;;;12.50;67.50;;;;;;5134096;27;20126;-72
2022/10/20 10:42:24;;;;;;;10.55;7.93;;;12.60;67.20;;;;;;5131325;27;20402;-72
2022/10/20 10:45:05;;;;;;;13.82;8.68;;;12.70;67.00;;;;;;5131890;27;20107;-72
2022/10/20 10:47:49;;;;;;;11.10;7.82;;;12.70;67.10;;;;;;5132766;27;20360;-72
2022/10/20 10:50:26;;;;;;;9.68;7.60;;;12.70;67.10;;;;;;5116575;27;20405;-72
2022/10/20 10:53:00;;;;;;;9.88;8.40;;;12.80;67.20;;;;;;5133930;27;20367;-71
2022/10/20 10:55:31;;;;;;;10.75;8.75;;;12.80;67.10;;;;;;5114676;27;20035;-71
2022/10/20 10:58:17;;;;;;;10.68;8.55;;;12.90;67.00;;;;;;5142346;27;20027;-72
2022/10/20 11:01:04;;;;;;;11.13;8.35;;;12.90;66.80;;;;;;5113241;27;20085;-72
2022/10/20 11:04:00;;;;;;;13.25;8.73;;;12.90;66.90;;;;;;5132914;27;20036;-72
2022/10/20 11:06:35;;;;;;;10.85;8.73;;;12.90;66.90;;;;;;5115918;27;20494;-72
2022/10/20 11:09:28;;;;;;;10.43;8.23;;;12.90;67.00;;;;;;5131196;27;20050;-72
2022/10/20 11:12:14;;;;;;;14.02;8.85;;;13.00;66.90;;;;;;5133168;27;20043;-72
2022/10/20 11:14:48;;;;;;;14.10;9.50;;;13.00;66.90;;;;;;5131053;27;20054;-73
2022/10/20 11:17:29;;;;;;;10.20;8.45;;;13.00;67.30;;;;;;5132885;27;20076;-71
2022/10/20 11:20:16;;;;;;;9.93;8.25;;;13.00;67.40;;;;;;5133327;27;20554;-72
2022/10/20 11:23:09;;;;;;;10.35;9.25;;;13.00;67.20;;;;;;5131806;27;20035;-72
2022/10/20 11:25:43;;;;;;;9.73;8.70;;;13.10;67.50;;;;;;5132061;27;20360;-71
2022/10/20 11:28:24;;;;;;;;;;;13.00;67.50;;;;;;5113880;27;20490;-71
2022/10/20 11:30:50;;;;;;;11.68;8.27;;;13.10;67.60;;;;;;5140115;27;19916;-71
2022/10/20 11:33:25;;;;;;;12.38;8.82;;;13.00;67.60;;;;;;5132588;27;20074;-71
2022/10/20 11:36:00;;;;;;;11.23;9.23;;;13.10;67.50;;;;;;5130264;27;20563;-71
2022/10/20 11:38:39;;;;;;;10.23;8.98;;;13.10;67.60;;;;;;5132670;27;20073;-72
2022/10/20 11:41:11;;;;;;;9.05;8.02;;;13.10;67.70;;;;;;5132838;27;20042;-72
2022/10/20 11:44:00;;;;;;;10.05;8.82;;;13.10;68.00;;;;;;5115441;27;20486;-71
2022/10/20 11:46:41;;;;;;;10.32;9.23;;;13.10;68.10;;;;;;5132624;27;20107;-71
2022/10/20 11:49:10;;;;;;;11.85;9.60;;;13.20;68.20;;;;;;5131528;27;20114;-71
2022/10/20 11:52:08;;;;;;;11.93;8.48;;;13.20;68.20;;;;;;5115888;27;20043;-71
2022/10/20 11:55:14;;;;;;;11.18;8.93;;;13.20;68.70;;;;;;5132929;27;20050;-71
2022/10/20 11:57:54;;;;;;;11.38;8.77;;;13.20;68.20;;;;;;5132878;27;20050;-71
2022/10/20 12:00:34;;;;;;;9.95;8.77;;;13.20;68.40;;;;;;5112554;28;20398;-71
2022/10/20 12:03:28;;;;;;;9.65;8.75;;;13.20;68.40;;;;;;5114336;27;20031;-71
2022/10/20 12:05:54;;;;;;;10.45;9.35;;;13.20;68.40;;;;;;5132518;27;20035;-71
2022/10/20 12:08:47;;;;;;;11.45;8.98;;;13.20;68.60;;;;;;5132693;27;20447;-72
2022/10/20 12:12:01;;;;;;;12.95;9.30;;;13.20;68.60;;;;;;5133058;27;20073;-71
2022/10/20 12:14:37;;;;;;;11.23;9.10;;;13.20;68.90;;;;;;5086760;27;20043;-72
2022/10/20 12:17:21;;;;;;;14.40;9.50;;;13.10;69.20;;;;;;5131923;27;20031;-71
2022/10/20 12:19:49;;;;;;;11.73;9.40;;;13.10;69.40;;;;;;5121000;27;20074;-72
2022/10/20 12:22:15;;;;;;;11.27;9.90;;;13.10;69.70;;;;;;5115014;27;20043;-72
2022/10/20 12:25:02;;;;;;;11.38;10.13;;;13.00;69.90;;;;;;5131392;27;20452;-73
2022/10/20 12:27:28;;;;;;;11.73;10.27;;;13.10;70.30;;;;;;5136057;27;20475;-72
2022/10/20 12:29:57;;;;;;;12.63;10.88;;;13.00;70.60;;;;;;5129577;27;20043;-72
2022/10/20 12:32:41;;;;;;;12.48;10.52;;;13.00;71.00;;;;;;5132232;27;20035;-72
2022/10/20 12:35:09;;;;;;;13.93;10.82;;;13.00;71.20;;;;;;5121972;27;20061;-71
2022/10/20 12:37:37;;;;;;;13.45;11.18;;;13.00;71.50;;;;;;5139920;27;20489;-71
2022/10/20 12:40:06;;;;;;;14.88;11.02;;;13.00;71.80;;;;;;5131797;28;20066;-71
2022/10/20 12:42:33;;;;;;;12.25;10.93;;;13.00;72.00;;;;;;5140545;27;20028;-71
2022/10/20 12:45:06;;;;;;;14.85;10.70;;;12.90;72.20;;;;;;5140072;27;20032;-71
2022/10/20 12:47:35;;;;;;;12.98;10.50;;;12.90;72.60;;;;;;5131943;28;20355;-72
2022/10/20 12:50:04;;;;;;;14.68;11.95;;;12.90;73.00;;;;;;5138384;27;20058;-71
2022/10/20 12:52:36;;;;;;;14.98;10.98;;;12.90;73.30;;;;;;5131923;27;20046;-71
2022/10/20 12:55:05;;;;;;;14.57;11.00;;;12.80;73.60;;;;;;5115025;28;20402;-71
2022/10/20 12:57:40;;;;;;;15.30;12.52;;;12.80;73.80;;;;;;5132164;27;20126;-71
2022/10/20 13:00:26;;;;;;;15.55;12.27;;;12.80;74.10;;;;;;5131300;27;20105;-71